Time;durP1;ratioP1;P1;durP2;ratioP2;P2;SDS_P1;SDS_P2;PMS_P1;PMS_P2;Temp;Humidity;BMP_temperature;BMP_pressure;BME280_temperature;BME280_humidity;BME280_pressure;Samples;Min_cycle;Max_cycle;Signal;HPM_P1;HPM_P2
2022/03/05 00:02:32;;;;;;;3.47;2.00;;;15.90;42.70;;;;;;5268722;28;20214;-65
2022/03/05 00:05:25;;;;;;;2.20;1.73;;;15.90;42.60;;;;;;5246853;28;20209;-65
2022/03/05 00:08:17;;;;;;;2.77;1.80;;;15.90;42.60;;;;;;5266907;28;20217;-65
2022/03/05 00:11:09;;;;;;;3.67;2.07;;;15.90;42.60;;;;;;5266821;28;20579;-65
2022/03/05 00:14:01;;;;;;;2.47;1.90;;;15.90;42.50;;;;;;5274659;28;20196;-65
2022/03/05 00:16:53;;;;;;;3.97;1.80;;;15.90;42.40;;;;;;5279853;28;20208;-65
2022/03/05 00:19:47;;;;;;;3.00;1.67;;;15.90;42.30;;;;;;5271485;28;20219;-65
2022/03/05 00:22:39;;;;;;;1.87;1.50;;;15.90;42.90;;;;;;5266478;28;20219;-65
2022/03/05 00:25:31;;;;;;;3.87;1.97;;;15.90;42.20;;;;;;5266186;28;20215;-65
2022/03/05 00:28:23;;;;;;;2.83;2.03;;;15.90;42.20;;;;;;5265588;28;20199;-65
2022/03/05 00:31:16;;;;;;;3.40;2.20;;;15.90;42.20;;;;;;5258514;28;20671;-65
2022/03/05 00:34:08;;;;;;;2.77;2.03;;;15.90;42.00;;;;;;5260810;28;20194;-65
2022/03/05 00:37:01;;;;;;;2.90;1.97;;;15.90;41.90;;;;;;5266077;28;20216;-65
2022/03/05 00:39:53;;;;;;;3.47;2.03;;;15.90;42.00;;;;;;5265271;28;20574;-65
2022/03/05 00:42:45;;;;;;;2.33;1.77;;;15.80;41.80;;;;;;5266099;28;20277;-65
2022/03/05 00:45:38;;;;;;;2.40;1.60;;;15.80;41.80;;;;;;5266896;28;20241;-65
2022/03/05 00:48:31;;;;;;;4.50;2.03;;;15.80;42.00;;;;;;5264985;28;20195;-65
2022/03/05 00:51:23;;;;;;;3.73;1.83;;;15.80;41.90;;;;;;5265974;28;20362;-65
2022/03/05 00:54:16;;;;;;;3.13;1.53;;;15.80;41.80;;;;;;5269589;28;20272;-65
2022/03/05 00:57:08;;;;;;;2.90;1.67;;;15.80;41.90;;;;;;5269560;28;20215;-65
2022/03/05 01:00:01;;;;;;;4.30;1.70;;;15.80;41.80;;;;;;5286105;28;20661;-65
2022/03/05 01:02:53;;;;;;;2.47;1.60;;;15.80;41.80;;;;;;5279582;28;20223;-65
2022/03/05 01:05:45;;;;;;;3.87;1.93;;;15.80;41.90;;;;;;5264674;28;20778;-64
2022/03/05 01:08:37;;;;;;;2.20;1.03;;;15.80;41.80;;;;;;5265158;28;20275;-65
2022/03/05 01:11:31;;;;;;;2.17;1.20;;;15.80;41.70;;;;;;5266394;28;20191;-65
2022/03/05 01:14:23;;;;;;;3.67;1.63;;;15.70;41.60;;;;;;5264957;28;20199;-65
2022/03/05 01:17:16;;;;;;;3.53;1.47;;;15.80;41.60;;;;;;5265092;28;20219;-65
2022/03/05 01:20:09;;;;;;;2.90;1.27;;;15.80;41.50;;;;;;5265009;28;20199;-65
2022/03/05 01:23:01;;;;;;;1.83;1.20;;;15.80;41.30;;;;;;5265458;28;20215;-65
2022/03/05 01:25:54;;;;;;;1.87;1.37;;;15.70;41.30;;;;;;5264790;28;20697;-65
2022/03/05 01:28:47;;;;;;;2.80;1.57;;;15.80;41.30;;;;;;5264606;28;20260;-65
2022/03/05 01:31:39;;;;;;;2.20;1.43;;;15.70;41.30;;;;;;5246785;28;20200;-65
2022/03/05 01:34:31;;;;;;;3.20;1.40;;;15.70;41.30;;;;;;5244409;28;20325;-65
2022/03/05 01:37:23;;;;;;;2.07;1.20;;;15.70;41.80;;;;;;5246276;28;20196;-65
2022/03/05 01:40:16;;;;;;;2.83;1.50;;;15.70;41.10;;;;;;5262749;28;20278;-65
2022/03/05 01:43:08;;;;;;;1.60;1.40;;;15.70;41.10;;;;;;5263840;28;20219;-65
2022/03/05 01:46:01;;;;;;;3.37;1.63;;;15.70;41.20;;;;;;5265175;28;20269;-64
2022/03/05 01:48:53;;;;;;;2.70;1.37;;;15.70;41.00;;;;;;5264855;28;20199;-65
2022/03/05 01:51:46;;;;;;;2.67;1.50;;;15.70;40.90;;;;;;5246153;28;20197;-65
2022/03/05 01:54:39;;;;;;;2.47;1.80;;;15.70;40.90;;;;;;5257973;28;20191;-65
2022/03/05 01:57:31;;;;;;;2.60;1.50;;;15.70;41.00;;;;;;5266383;28;20204;-65
2022/03/05 02:00:23;;;;;;;3.90;1.70;;;15.70;40.90;;;;;;5265423;28;20192;-65
2022/03/05 02:03:17;;;;;;;2.37;1.47;;;15.70;40.80;;;;;;5264380;28;20694;-65
2022/03/05 02:06:10;;;;;;;2.23;1.50;;;15.60;40.70;;;;;;5265817;28;20212;-65
2022/03/05 02:09:02;;;;;;;3.77;1.43;;;15.60;40.70;;;;;;5265407;28;20226;-65
2022/03/05 02:11:54;;;;;;;3.13;1.43;;;15.60;40.70;;;;;;5265007;28;20203;-65
2022/03/05 02:14:46;;;;;;;2.13;1.27;;;15.60;40.60;;;;;;5264806;28;20198;-65
2022/03/05 02:17:38;;;;;;;2.23;1.20;;;15.60;40.60;;;;;;5265272;28;20692;-65
2022/03/05 02:20:32;;;;;;;2.27;1.27;;;15.60;40.70;;;;;;5263980;28;20191;-65
2022/03/05 02:23:24;;;;;;;2.30;1.23;;;15.60;40.80;;;;;;5268016;28;20218;-65
2022/03/05 02:26:16;;;;;;;2.27;1.17;;;15.60;40.80;;;;;;5243808;28;20291;-65
2022/03/05 02:29:08;;;;;;;3.33;1.20;;;15.60;40.80;;;;;;5246232;28;20191;-65
2022/03/05 02:32:00;;;;;;;1.37;1.27;;;15.60;40.80;;;;;;5264988;28;20214;-65
2022/03/05 02:34:53;;;;;;;2.13;1.20;;;15.50;40.90;;;;;;5265028;28;20673;-65
2022/03/05 02:37:47;;;;;;;3.53;1.43;;;15.50;40.80;;;;;;5264515;28;20867;-65
2022/03/05 02:40:39;;;;;;;2.70;1.40;;;15.50;40.80;;;;;;5264532;28;20215;-65
2022/03/05 02:43:31;;;;;;;2.03;1.10;;;15.50;40.60;;;;;;5265429;28;20223;-65
2022/03/05 02:46:26;;;;;;;2.43;1.50;;;15.50;40.50;;;;;;5264602;28;20223;-65
2022/03/05 02:49:18;;;;;;;2.67;1.20;;;15.50;40.50;;;;;;5265261;28;20574;-65
2022/03/05 02:52:11;;;;;;;3.73;1.40;;;15.50;40.40;;;;;;5247565;28;20197;-65
2022/03/05 02:55:05;;;;;;;2.53;1.20;;;15.60;40.40;;;;;;5268218;28;20558;-65
2022/03/05 02:57:57;;;;;;;1.97;1.37;;;15.60;40.30;;;;;;5279370;28;20660;-65
2022/03/05 03:00:50;;;;;;;3.33;1.00;;;15.60;40.30;;;;;;5267042;28;20655;-65
2022/03/05 03:03:42;;;;;;;3.10;1.27;;;15.50;40.30;;;;;;5246932;28;20222;-65
2022/03/05 03:06:34;;;;;;;2.13;1.40;;;15.50;40.40;;;;;;5247531;28;20753;-65
2022/03/05 03:09:28;;;;;;;3.90;1.33;;;15.50;40.30;;;;;;5248043;28;20196;-65
2022/03/05 03:12:22;;;;;;;2.97;1.30;;;15.50;40.50;;;;;;5247571;28;20204;-65
2022/03/05 03:15:16;;;;;;;1.93;1.17;;;15.50;40.50;;;;;;5247651;28;20243;-65
2022/03/05 03:18:08;;;;;;;2.40;1.47;;;15.50;40.40;;;;;;5248632;28;20196;-66
2022/03/05 03:21:00;;;;;;;4.00;1.40;;;15.50;40.40;;;;;;5246770;28;20209;-65
2022/03/05 03:23:52;;;;;;;2.03;1.23;;;15.50;40.40;;;;;;5247697;28;20751;-65
2022/03/05 03:26:45;;;;;;;3.07;1.53;;;15.50;40.30;;;;;;5246525;28;20896;-65
2022/03/05 03:29:39;;;;;;;3.67;1.63;;;15.50;40.20;;;;;;5246045;28;20277;-65
2022/03/05 03:32:31;;;;;;;2.87;1.23;;;15.50;40.20;;;;;;5247929;28;20200;-65
2022/03/05 03:35:24;;;;;;;2.63;1.37;;;15.40;40.30;;;;;;5266537;28;20304;-65
2022/03/05 03:38:16;;;;;;;3.20;1.40;;;15.40;40.20;;;;;;5268147;28;20566;-65
2022/03/05 03:41:08;;;;;;;2.47;1.50;;;15.40;40.10;;;;;;5267042;28;20398;-66
2022/03/05 03:44:00;;;;;;;2.30;1.23;;;15.40;40.10;;;;;;5267289;28;20691;-65
2022/03/05 03:46:53;;;;;;;3.03;1.30;;;15.40;40.10;;;;;;5268025;28;20230;-65
2022/03/05 03:49:46;;;;;;;2.47;1.40;;;15.40;40.10;;;;;;5267444;28;20198;-65
2022/03/05 03:52:38;;;;;;;2.53;1.20;;;15.40;40.10;;;;;;5265706;28;20188;-65
2022/03/05 03:55:30;;;;;;;2.47;1.40;;;15.40;40.30;;;;;;5274558;28;20244;-65
2022/03/05 03:58:22;;;;;;;2.00;1.30;;;15.40;40.20;;;;;;5248097;28;20789;-65
2022/03/05 04:01:14;;;;;;;2.10;1.33;;;15.40;40.10;;;;;;5265903;28;20206;-65
2022/03/05 04:04:08;;;;;;;2.47;1.17;;;15.40;40.00;;;;;;5266020;28;20220;-65
2022/03/05 04:10:10;;;;;;;4.47;1.30;;;15.30;39.80;;;;;;5267166;28;20191;-65
2022/03/05 04:13:02;;;;;;;2.67;1.40;;;15.40;40.40;;;;;;5265811;28;20207;-65
2022/03/05 04:15:54;;;;;;;2.20;1.30;;;15.40;39.80;;;;;;5266468;28;20215;-65
2022/03/05 04:18:46;;;;;;;3.40;1.30;;;15.30;39.70;;;;;;5267218;28;20202;-65
2022/03/05 04:21:39;;;;;;;2.93;1.23;;;15.30;39.70;;;;;;5265037;28;20252;-65
2022/03/05 04:24:32;;;;;;;2.80;1.20;;;15.30;39.70;;;;;;5268911;28;20214;-65
2022/03/05 04:27:24;;;;;;;2.27;1.30;;;15.30;39.70;;;;;;5266352;28;20188;-65
2022/03/05 04:30:16;;;;;;;2.90;1.50;;;15.30;39.70;;;;;;5265573;28;20959;-65
2022/03/05 04:33:08;;;;;;;2.10;1.20;;;15.30;39.60;;;;;;5263728;28;20198;-65
2022/03/05 04:36:00;;;;;;;2.37;1.70;;;15.30;39.50;;;;;;5245668;28;20298;-65
2022/03/05 04:38:53;;;;;;;2.70;1.53;;;15.30;39.50;;;;;;5245491;28;20583;-65
2022/03/05 04:41:45;;;;;;;2.10;1.20;;;15.30;39.40;;;;;;5244732;28;20206;-65
2022/03/05 04:44:38;;;;;;;3.90;1.87;;;15.30;39.40;;;;;;5245506;28;20212;-65
2022/03/05 04:47:30;;;;;;;1.97;1.37;;;15.30;39.40;;;;;;5249869;28;20202;-65
2022/03/05 04:50:22;;;;;;;2.93;1.40;;;15.30;39.40;;;;;;5276938;28;20198;-65
2022/03/05 04:53:14;;;;;;;1.37;1.13;;;15.30;39.50;;;;;;5278498;28;20562;-65
2022/03/05 04:56:08;;;;;;;1.80;1.23;;;15.30;39.40;;;;;;5262424;28;20214;-64
2022/03/05 04:59:00;;;;;;;2.90;1.60;;;15.30;39.60;;;;;;5264973;28;20202;-65
2022/03/05 05:01:52;;;;;;;2.93;1.47;;;15.20;39.60;;;;;;5263807;28;20186;-65
2022/03/05 05:04:45;;;;;;;2.33;1.20;;;15.30;39.50;;;;;;5266395;28;20207;-65
2022/03/05 05:07:37;;;;;;;2.33;1.00;;;15.20;39.30;;;;;;5253699;23;20225;-68
2022/03/05 05:10:30;;;;;;;2.07;1.27;;;15.30;39.40;;;;;;5222605;28;20189;-68
2022/03/05 05:13:24;;;;;;;3.10;1.50;;;15.20;39.30;;;;;;5225097;28;20193;-67
2022/03/05 05:16:16;;;;;;;4.20;1.60;;;15.20;39.40;;;;;;5223947;28;20197;-67
2022/03/05 05:22:26;;;;;;;3.83;1.30;;;15.20;39.50;;;;;;5206922;28;20189;-67
2022/03/05 05:25:18;;;;;;;2.80;1.33;;;15.20;39.50;;;;;;5228586;28;20265;-68
2022/03/05 05:28:11;;;;;;;2.67;1.40;;;15.20;39.50;;;;;;5226350;28;20239;-68
2022/03/05 05:31:04;;;;;;;2.70;1.40;;;15.20;39.60;;;;;;5217167;28;20200;-68
2022/03/05 05:33:56;;;;;;;1.83;1.30;;;15.20;39.60;;;;;;5225430;28;20271;-68
2022/03/05 05:36:48;;;;;;;2.27;1.50;;;15.10;39.60;;;;;;5220257;28;20299;-68
2022/03/05 05:39:41;;;;;;;2.00;1.40;;;15.10;39.50;;;;;;5225025;28;20222;-67
2022/03/05 05:42:33;;;;;;;3.03;1.33;;;15.10;39.30;;;;;;5230358;28;20196;-68
2022/03/05 05:45:25;;;;;;;3.93;1.43;;;15.20;39.30;;;;;;5233642;28;20298;-68
2022/03/05 05:48:18;;;;;;;2.07;1.37;;;15.20;39.20;;;;;;5230197;28;20217;-68
2022/03/05 05:51:11;;;;;;;1.90;1.37;;;15.20;39.40;;;;;;5236239;28;20548;-68
2022/03/05 05:54:03;;;;;;;2.43;1.30;;;15.20;39.30;;;;;;5236861;28;20192;-68
2022/03/05 05:56:55;;;;;;;3.23;1.50;;;15.20;39.20;;;;;;5225372;28;20699;-68
2022/03/05 05:59:47;;;;;;;3.70;1.43;;;15.20;39.20;;;;;;5224046;28;20193;-68
2022/03/05 06:02:42;;;;;;;2.03;1.17;;;15.20;39.20;;;;;;5230348;28;20678;-68
2022/03/05 06:05:36;;;;;;;1.83;1.40;;;15.20;39.30;;;;;;5232497;28;20220;-68
2022/03/05 06:08:28;;;;;;;3.53;1.50;;;15.20;39.30;;;;;;5234995;28;20214;-68
2022/03/05 06:11:21;;;;;;;3.57;1.57;;;15.20;39.20;;;;;;5233774;28;20727;-68
2022/03/05 06:14:13;;;;;;;3.30;1.37;;;15.20;39.10;;;;;;5232707;28;20705;-68
2022/03/05 06:17:05;;;;;;;2.87;1.60;;;15.20;39.10;;;;;;5234647;28;20212;-68
2022/03/05 06:19:58;;;;;;;2.67;1.53;;;15.10;39.50;;;;;;5228750;28;20328;-68
2022/03/05 06:22:51;;;;;;;2.60;1.63;;;15.10;39.70;;;;;;5232607;28;20219;-68
2022/03/05 06:25:43;;;;;;;2.77;1.37;;;15.10;39.50;;;;;;5237516;28;20212;-68
2022/03/05 06:28:36;;;;;;;2.00;1.53;;;15.10;39.50;;;;;;5237372;28;20202;-68
2022/03/05 06:31:28;;;;;;;2.37;1.50;;;15.10;39.60;;;;;;5228386;28;20318;-68
2022/03/05 06:34:21;;;;;;;2.97;1.40;;;15.10;39.60;;;;;;5215702;28;20190;-68
2022/03/05 06:37:13;;;;;;;2.60;1.60;;;15.10;39.60;;;;;;5207496;28;20680;-68
2022/03/05 06:40:10;;;;;;;2.40;1.23;;;15.10;39.50;;;;;;5207482;28;20198;-67
2022/03/05 06:43:02;;;;;;;4.43;1.40;;;15.10;39.70;;;;;;5208318;28;20197;-68
2022/03/05 06:45:54;;;;;;;3.70;1.80;;;15.10;39.80;;;;;;5208247;28;20214;-69
2022/03/05 06:48:47;;;;;;;3.10;1.83;;;15.10;39.70;;;;;;5220871;28;20743;-69
2022/03/05 06:51:39;;;;;;;2.63;1.80;;;15.10;39.70;;;;;;5223710;28;20687;-68
2022/03/05 06:54:31;;;;;;;2.03;1.40;;;15.10;39.70;;;;;;5219489;28;20192;-67
2022/03/05 06:57:25;;;;;;;3.07;1.70;;;15.10;39.70;;;;;;5217125;28;20701;-68
2022/03/05 07:00:17;;;;;;;3.30;1.70;;;15.10;39.90;;;;;;5219457;28;20184;-68
2022/03/05 07:03:09;;;;;;;2.93;1.77;;;15.10;39.80;;;;;;5224393;28;20208;-68
2022/03/05 07:06:01;;;;;;;5.60;1.80;;;15.10;40.00;;;;;;5224324;28;20196;-67
2022/03/05 07:08:54;;;;;;;4.00;2.20;;;15.10;39.90;;;;;;5229715;28;20264;-68
2022/03/05 07:11:46;;;;;;;2.10;1.40;;;15.10;39.80;;;;;;5220209;28;20193;-68
2022/03/05 07:14:39;;;;;;;2.70;1.60;;;15.10;39.70;;;;;;5219539;28;20207;-69
2022/03/05 07:17:32;;;;;;;1.73;1.50;;;15.10;39.70;;;;;;5207405;28;20213;-68
2022/03/05 07:20:24;;;;;;;3.83;1.80;;;15.10;39.80;;;;;;5217228;28;20189;-68
2022/03/05 07:23:16;;;;;;;2.57;1.37;;;15.20;39.80;;;;;;5218709;28;20311;-68
2022/03/05 07:26:08;;;;;;;2.57;1.67;;;15.10;39.70;;;;;;5218172;28;20189;-68
2022/03/05 07:29:00;;;;;;;4.03;1.70;;;15.20;39.80;;;;;;5219047;28;20201;-68
2022/03/05 07:31:54;;;;;;;1.90;1.40;;;15.10;39.70;;;;;;5234440;28;20326;-68
2022/03/05 07:34:46;;;;;;;2.77;1.60;;;15.10;39.60;;;;;;5247831;28;20187;-68
2022/03/05 07:37:38;;;;;;;2.77;1.30;;;15.20;39.80;;;;;;5247188;28;20218;-68
2022/03/05 07:40:30;;;;;;;4.07;1.90;;;15.10;39.70;;;;;;5247654;28;20550;-68
2022/03/05 07:43:22;;;;;;;2.10;1.33;;;15.10;39.90;;;;;;5246966;28;20271;-68
2022/03/05 07:46:14;;;;;;;2.53;1.67;;;15.10;40.00;;;;;;5246980;28;20241;-69
2022/03/05 07:49:08;;;;;;;3.67;1.67;;;15.10;40.00;;;;;;5245629;28;20194;-68
2022/03/05 07:52:00;;;;;;;2.67;1.70;;;15.10;40.00;;;;;;5226482;28;20201;-68
2022/03/05 07:54:52;;;;;;;2.67;1.70;;;15.10;40.20;;;;;;5226360;28;20585;-68
2022/03/05 07:57:44;;;;;;;2.97;1.77;;;15.10;40.20;;;;;;5220057;28;20209;-68
2022/03/05 08:00:37;;;;;;;2.60;1.70;;;15.10;40.30;;;;;;5207385;28;20600;-69
2022/03/05 08:03:29;;;;;;;3.73;1.80;;;15.10;40.30;;;;;;5220361;28;20203;-65
2022/03/05 08:06:22;;;;;;;2.00;1.47;;;15.10;40.40;;;;;;5223064;28;20212;-69
2022/03/05 08:09:14;;;;;;;2.33;1.40;;;15.10;40.50;;;;;;5234168;28;20205;-68
2022/03/05 08:12:07;;;;;;;3.17;1.60;;;15.10;40.50;;;;;;5226808;28;20192;-69
2022/03/05 08:14:59;;;;;;;3.30;1.50;;;15.10;40.60;;;;;;5226654;28;20886;-69
2022/03/05 08:17:53;;;;;;;3.60;2.00;;;15.10;40.40;;;;;;5226786;28;20351;-69
2022/03/05 08:20:45;;;;;;;2.33;1.60;;;15.10;40.60;;;;;;5227151;28;20200;-69
2022/03/05 08:23:39;;;;;;;3.03;1.77;;;15.10;40.60;;;;;;5226787;28;20199;-69
2022/03/05 08:26:31;;;;;;;2.77;1.60;;;15.20;40.60;;;;;;5226823;28;20340;-69
2022/03/05 08:29:23;;;;;;;3.07;1.90;;;15.10;40.60;;;;;;5226955;28;20194;-69
2022/03/05 08:32:15;;;;;;;3.40;1.60;;;15.10;40.90;;;;;;5226017;28;20196;-68
2022/03/05 08:35:09;;;;;;;1.77;1.30;;;15.10;41.40;;;;;;5224987;28;20600;-68
2022/03/05 08:38:01;;;;;;;2.70;1.50;;;15.20;42.60;;;;;;5218030;28;20687;-69
2022/03/05 08:40:55;;;;;;;2.90;1.57;;;15.30;43.20;;;;;;5205724;28;20692;-68
2022/03/05 08:43:47;;;;;;;2.37;1.43;;;15.40;43.50;;;;;;5205806;28;20193;-68
2022/03/05 08:46:39;;;;;;;2.33;1.27;;;15.50;43.80;;;;;;5205812;28;20747;-69
2022/03/05 08:49:31;;;;;;;3.13;1.80;;;15.60;43.90;;;;;;5209824;28;20181;-68
2022/03/05 08:52:23;;;;;;;3.47;1.63;;;15.60;44.00;;;;;;5225047;28;20502;-68
2022/03/05 08:55:17;;;;;;;1.47;1.00;;;15.70;44.40;;;;;;5226259;28;20238;-67
2022/03/05 08:58:11;;;;;;;2.40;1.17;;;15.80;44.30;;;;;;5225952;28;20228;-67
2022/03/05 09:01:03;;;;;;;1.57;1.17;;;15.80;44.30;;;;;;5235019;28;20197;-66
2022/03/05 09:03:55;;;;;;;2.40;1.30;;;15.90;44.50;;;;;;5226519;28;20537;-68
2022/03/05 09:06:48;;;;;;;1.23;1.07;;;15.90;44.60;;;;;;5225849;28;20212;-68
2022/03/05 09:09:40;;;;;;;1.90;1.40;;;16.00;44.80;;;;;;5225893;28;20545;-68
2022/03/05 09:12:32;;;;;;;2.40;1.10;;;16.00;44.90;;;;;;5225779;28;20380;-68
2022/03/05 09:15:26;;;;;;;1.47;1.00;;;16.00;45.10;;;;;;5225029;28;20264;-68
2022/03/05 09:18:18;;;;;;;2.23;1.27;;;16.00;45.20;;;;;;5224525;28;20292;-68
2022/03/05 09:21:10;;;;;;;5.13;1.10;;;16.10;45.30;;;;;;5204636;28;20193;-68
2022/03/05 09:24:03;;;;;;;1.00;0.90;;;16.10;45.40;;;;;;5205616;28;20190;-68
2022/03/05 09:26:55;;;;;;;1.80;1.20;;;16.10;45.40;;;;;;5205114;28;20206;-67
2022/03/05 09:29:47;;;;;;;3.73;1.70;;;16.10;45.50;;;;;;5205134;28;20209;-68
2022/03/05 09:32:40;;;;;;;2.00;1.10;;;16.20;45.60;;;;;;5215480;28;20185;-68
2022/03/05 09:35:33;;;;;;;1.60;1.00;;;16.20;45.60;;;;;;5234616;28;20181;-68
2022/03/05 09:38:25;;;;;;;2.07;1.20;;;16.20;45.70;;;;;;5224484;28;20283;-68
2022/03/05 09:41:17;;;;;;;2.80;1.03;;;16.20;45.70;;;;;;5224485;28;20193;-68
2022/03/05 09:44:09;;;;;;;1.60;1.00;;;16.20;45.80;;;;;;5225740;28;20298;-67
2022/03/05 09:47:03;;;;;;;1.47;1.00;;;16.20;45.90;;;;;;5223179;28;20218;-68
2022/03/05 09:49:56;;;;;;;1.87;1.10;;;16.30;46.10;;;;;;5232477;28;20638;-68
2022/03/05 09:52:49;;;;;;;1.17;1.07;;;16.30;46.20;;;;;;5224855;28;20199;-68
2022/03/05 09:55:41;;;;;;;2.13;1.20;;;16.30;46.30;;;;;;5219826;28;20185;-68
2022/03/05 09:58:33;;;;;;;1.20;0.80;;;16.30;46.40;;;;;;5212091;28;20604;-68
2022/03/05 10:01:25;;;;;;;0.80;0.80;;;16.30;46.50;;;;;;5229009;28;20192;-68
2022/03/05 10:04:21;;;;;;;1.83;1.13;;;16.30;46.60;;;;;;5228035;28;20197;-67
2022/03/05 10:07:16;;;;;;;1.33;1.00;;;16.40;46.70;;;;;;5228938;28;20216;-67
2022/03/05 10:10:10;;;;;;;1.67;1.10;;;16.30;46.60;;;;;;5244965;28;20196;-66
2022/03/05 10:13:19;;;;;;;1.47;1.00;;;16.30;46.70;;;;;;5229708;28;20254;-67
2022/03/05 10:16:28;;;;;;;3.53;1.37;;;16.30;46.70;;;;;;5249134;28;20184;-67
2022/03/05 10:19:21;;;;;;;1.83;0.80;;;16.40;46.80;;;;;;5227391;28;20185;-67
2022/03/05 10:22:15;;;;;;;1.73;1.10;;;16.40;46.90;;;;;;5211849;28;20189;-67
2022/03/05 10:25:09;;;;;;;1.23;0.83;;;16.40;47.00;;;;;;5229171;28;20209;-66
2022/03/05 10:28:04;;;;;;;1.77;1.27;;;16.40;47.00;;;;;;5228414;28;20281;-67
2022/03/05 10:30:58;;;;;;;1.93;1.30;;;16.40;47.10;;;;;;5225734;28;20202;-67
2022/03/05 10:33:50;;;;;;;1.13;0.83;;;16.40;47.20;;;;;;5230198;28;20205;-67
2022/03/05 10:36:57;;;;;;;1.40;0.90;;;16.40;47.40;;;;;;5231369;28;20680;-67
2022/03/05 10:39:51;;;;;;;1.67;1.00;;;16.40;47.60;;;;;;5228344;28;20195;-66
2022/03/05 10:42:48;;;;;;;1.50;1.10;;;16.40;47.70;;;;;;5228121;28;20197;-68
2022/03/05 10:45:52;;;;;;;2.37;1.10;;;16.40;47.80;;;;;;5224734;28;20563;-67
2022/03/05 10:48:45;;;;;;;1.80;1.00;;;16.40;47.80;;;;;;5229364;28;20651;-67
2022/03/05 10:51:38;;;;;;;1.03;0.90;;;16.40;48.00;;;;;;5228527;28;20251;-67
2022/03/05 10:54:33;;;;;;;1.57;0.97;;;16.40;48.10;;;;;;5228787;28;20194;-68
2022/03/05 10:57:27;;;;;;;1.63;0.90;;;16.40;48.10;;;;;;5208352;28;20209;-67
2022/03/05 11:00:19;;;;;;;2.37;1.00;;;16.40;48.00;;;;;;5224370;28;20191;-68
2022/03/05 11:03:11;;;;;;;1.03;0.80;;;16.40;48.10;;;;;;5223902;28;20197;-67
2022/03/05 11:06:04;;;;;;;1.23;1.00;;;16.40;47.90;;;;;;5227705;28;20216;-67
2022/03/05 11:08:57;;;;;;;2.27;0.90;;;16.40;48.10;;;;;;5243253;22;20713;-68
2022/03/05 11:11:50;;;;;;;2.47;1.13;;;16.40;48.10;;;;;;5203518;28;20272;-69
2022/03/05 11:14:46;;;;;;;1.47;1.10;;;16.50;48.10;;;;;;5206666;28;20238;-69
2022/03/05 11:17:39;;;;;;;1.27;0.80;;;16.50;48.10;;;;;;5207230;28;20194;-70
2022/03/05 11:20:33;;;;;;;1.20;1.00;;;16.50;48.10;;;;;;5206501;28;20284;-69
2022/03/05 11:23:26;;;;;;;1.63;0.90;;;16.50;48.00;;;;;;5206179;28;20252;-69
2022/03/05 11:26:18;;;;;;;1.20;1.00;;;16.50;48.00;;;;;;5188289;28;20718;-69
2022/03/05 11:29:10;;;;;;;1.90;0.90;;;16.50;47.90;;;;;;5187933;28;20258;-70
2022/03/05 11:32:14;;;;;;;3.53;0.90;;;16.50;47.90;;;;;;5185990;28;20203;-73
2022/03/05 11:35:20;;;;;;;1.80;0.93;;;16.50;47.90;;;;;;5185841;28;20186;-69
2022/03/05 11:38:31;;;;;;;1.70;1.10;;;16.50;48.10;;;;;;5186283;28;20659;-70
2022/03/05 11:41:25;;;;;;;1.80;1.00;;;16.50;48.10;;;;;;5184810;28;20264;-70
2022/03/05 11:44:19;;;;;;;2.60;1.00;;;16.50;48.10;;;;;;5185287;28;20198;-70
2022/03/05 11:47:32;;;;;;;1.50;1.10;;;16.50;48.20;;;;;;5184307;28;20214;-68
2022/03/05 11:50:25;;;;;;;1.00;0.90;;;16.50;48.20;;;;;;5194489;28;20695;-68
2022/03/05 11:53:17;;;;;;;1.10;0.77;;;16.50;48.20;;;;;;5200000;28;20190;-68
2022/03/05 11:56:22;;;;;;;1.67;1.07;;;16.50;48.30;;;;;;5206636;28;20222;-68
2022/03/05 11:59:30;;;;;;;0.90;0.70;;;16.50;48.30;;;;;;5205414;28;20280;-67
2022/03/05 12:02:41;;;;;;;1.30;1.00;;;16.50;48.40;;;;;;5188965;28;20198;-68
2022/03/05 12:05:52;;;;;;;2.47;1.07;;;16.50;48.40;;;;;;5205255;28;20220;-69
2022/03/05 12:08:54;;;;;;;1.50;1.10;;;16.50;48.40;;;;;;5204087;28;20263;-68
2022/03/05 12:11:55;;;;;;;1.80;0.90;;;16.50;48.40;;;;;;5199596;28;20904;-68
2022/03/05 12:15:10;;;;;;;1.10;0.73;;;16.50;48.50;;;;;;5205795;28;20198;-65
2022/03/05 12:18:05;;;;;;;1.40;1.00;;;16.50;48.60;;;;;;5205478;28;20273;-64
2022/03/05 12:20:58;;;;;;;1.60;1.20;;;16.50;48.60;;;;;;5203732;28;20249;-65
2022/03/05 12:23:50;;;;;;;1.57;1.07;;;16.50;48.60;;;;;;5202344;28;20820;-63
2022/03/05 12:26:43;;;;;;;1.77;0.80;;;16.50;48.60;;;;;;5205086;28;20292;-65
2022/03/05 12:29:36;;;;;;;1.27;0.90;;;16.50;48.70;;;;;;5203461;28;20260;-66
2022/03/05 12:32:33;;;;;;;1.00;0.77;;;16.50;48.60;;;;;;5198328;28;20590;-65
2022/03/05 12:35:27;;;;;;;1.00;0.90;;;16.50;48.60;;;;;;5205245;28;20670;-69
2022/03/05 12:38:22;;;;;;;5.82;1.40;;;16.50;48.60;;;;;;5204591;28;20885;-67
2022/03/05 12:41:18;;;;;;;2.60;1.10;;;16.60;48.60;;;;;;5183138;28;20733;-66
2022/03/05 12:44:12;;;;;;;3.67;1.10;;;16.60;48.50;;;;;;5199952;28;20678;-70
2022/03/05 12:47:05;;;;;;;1.40;0.87;;;16.60;48.60;;;;;;5202233;28;20715;-68
2022/03/05 12:49:57;;;;;;;1.00;0.80;;;16.60;48.60;;;;;;5203613;28;20205;-68
2022/03/05 12:53:03;;;;;;;2.23;1.27;;;16.60;48.60;;;;;;5203883;28;20308;-70
2022/03/05 12:55:57;;;;;;;1.00;0.80;;;16.60;48.70;;;;;;5203436;28;20194;-68
2022/03/05 12:58:55;;;;;;;2.27;0.87;;;16.60;48.80;;;;;;5204060;28;20276;-67
2022/03/05 13:01:48;;;;;;;1.03;0.80;;;16.60;48.80;;;;;;5203094;28;20583;-68
2022/03/05 13:04:40;;;;;;;2.27;1.30;;;16.60;48.80;;;;;;5203001;28;20270;-68
2022/03/05 13:07:36;;;;;;;1.87;1.27;;;16.60;48.80;;;;;;5204156;28;20221;-69
2022/03/05 13:10:29;;;;;;;1.23;0.73;;;16.60;48.80;;;;;;5186409;28;20218;-68
2022/03/05 13:13:29;;;;;;;0.80;0.80;;;16.60;48.90;;;;;;5183903;28;20242;-68
2022/03/05 13:16:23;;;;;;;1.50;1.00;;;16.60;48.90;;;;;;5183273;28;20274;-68
2022/03/05 13:19:16;;;;;;;1.30;1.10;;;16.60;48.80;;;;;;5190828;28;20320;-69
2022/03/05 13:22:08;;;;;;;2.13;1.20;;;16.60;48.90;;;;;;5211929;28;20230;-68
2022/03/05 13:25:00;;;;;;;1.50;1.00;;;16.60;48.90;;;;;;5204377;28;20610;-68
2022/03/05 13:27:53;;;;;;;2.07;0.80;;;16.60;48.90;;;;;;5203617;28;20323;-67
2022/03/05 13:30:50;;;;;;;1.10;1.00;;;16.60;48.90;;;;;;5203072;28;20224;-68
2022/03/05 13:33:50;;;;;;;1.33;0.90;;;16.60;48.80;;;;;;5203699;28;20277;-68
2022/03/05 13:36:42;;;;;;;1.00;0.80;;;16.60;48.90;;;;;;5203273;28;20196;-67
2022/03/05 13:39:36;;;;;;;1.33;1.00;;;16.60;48.90;;;;;;5203669;28;20304;-67
2022/03/05 13:42:34;;;;;;;0.83;0.80;;;16.60;48.90;;;;;;5203157;28;20252;-71
2022/03/05 13:45:29;;;;;;;1.20;0.80;;;16.60;49.00;;;;;;5203887;28;20675;-66
2022/03/05 13:48:21;;;;;;;1.63;1.10;;;16.60;49.00;;;;;;5204408;28;20205;-66
2022/03/05 13:51:15;;;;;;;1.03;0.90;;;16.60;49.10;;;;;;5193181;28;20229;-66
2022/03/05 13:54:08;;;;;;;1.40;0.97;;;16.60;49.10;;;;;;5183777;28;20275;-66
2022/03/05 13:57:01;;;;;;;1.47;0.90;;;16.60;49.10;;;;;;5183409;28;20197;-65
2022/03/05 13:59:53;;;;;;;1.27;0.90;;;16.60;49.20;;;;;;5185297;28;20357;-66
2022/03/05 14:02:47;;;;;;;1.00;0.90;;;16.70;49.20;;;;;;5203894;28;20333;-66
2022/03/05 14:05:39;;;;;;;2.40;1.27;;;16.70;49.30;;;;;;5200217;28;20344;-67
2022/03/05 14:08:47;;;;;;;1.67;0.93;;;16.60;49.30;;;;;;5203693;28;20201;-68
2022/03/05 14:11:39;;;;;;;1.77;1.00;;;16.70;49.40;;;;;;5201170;28;20190;-66
2022/03/05 14:14:36;;;;;;;1.47;1.00;;;16.60;49.30;;;;;;5203746;28;20670;-67
2022/03/05 14:17:30;;;;;;;1.47;1.10;;;16.70;49.40;;;;;;5197474;28;20198;-65
2022/03/05 14:20:26;;;;;;;0.77;0.77;;;16.70;49.50;;;;;;5183118;28;20219;-67
2022/03/05 14:23:20;;;;;;;1.50;1.10;;;16.70;49.50;;;;;;5198108;28;20211;-69
2022/03/05 14:26:13;;;;;;;1.07;0.90;;;16.70;49.50;;;;;;5202674;28;20222;-64
2022/03/05 14:29:05;;;;;;;1.67;0.93;;;16.70;49.60;;;;;;5203196;28;20198;-69
2022/03/05 14:31:57;;;;;;;1.17;0.90;;;16.70;49.60;;;;;;5202785;28;20198;-69
2022/03/05 14:34:50;;;;;;;1.10;0.90;;;16.70;49.70;;;;;;5203059;28;20198;-68
2022/03/05 14:37:46;;;;;;;1.63;1.07;;;16.70;49.70;;;;;;5200668;28;20189;-68
2022/03/05 14:40:39;;;;;;;1.07;0.97;;;16.70;49.70;;;;;;5199050;28;20213;-68
2022/03/05 14:43:31;;;;;;;1.53;1.27;;;16.70;49.70;;;;;;5184155;28;20238;-68
2022/03/05 14:46:24;;;;;;;2.40;0.90;;;16.70;49.80;;;;;;5187011;28;20769;-68
2022/03/05 14:49:16;;;;;;;1.73;1.20;;;16.70;49.80;;;;;;5197086;28;20276;-68
2022/03/05 14:52:08;;;;;;;1.37;1.10;;;16.60;49.80;;;;;;5196859;28;20233;-70
2022/03/05 14:55:01;;;;;;;1.30;1.20;;;16.70;49.90;;;;;;5205316;28;20190;-68
2022/03/05 14:57:53;;;;;;;1.37;1.27;;;16.70;49.90;;;;;;5207262;28;20272;-69
2022/03/05 15:00:46;;;;;;;1.80;1.20;;;16.70;50.00;;;;;;5199080;28;20303;-68
2022/03/05 15:03:38;;;;;;;2.30;1.57;;;16.70;50.00;;;;;;5207274;28;20288;-67
2022/03/05 15:06:30;;;;;;;2.23;1.33;;;16.70;50.10;;;;;;5206067;28;20225;-67
2022/03/05 15:09:22;;;;;;;2.27;1.20;;;16.70;50.10;;;;;;5205823;28;20695;-67
2022/03/05 15:12:16;;;;;;;1.27;1.17;;;16.70;50.20;;;;;;5206190;28;20329;-69